createdAt,value
2022-08-12T00:00:09.058Z,3.47
2022-08-12T00:02:54.653Z,2.93
2022-08-12T00:06:04.499Z,2.93
2022-08-12T00:08:50.199Z,2.50
2022-08-12T00:11:35.887Z,2.80
2022-08-12T00:14:21.315Z,2.80
2022-08-12T00:17:07.287Z,2.80
2022-08-12T00:19:52.724Z,2.80
2022-08-12T00:22:39.343Z,2.67
2022-08-12T00:26:01.367Z,3.20
2022-08-12T00:28:31.193Z,3.40
2022-08-12T00:31:16.957Z,2.80
2022-08-12T00:34:02.377Z,3.40
2022-08-12T00:36:50.135Z,3.00
2022-08-12T00:39:36.556Z,2.50
2022-08-12T00:42:10.617Z,3.00
2022-08-12T00:44:43.413Z,3.30
2022-08-12T00:47:25.712Z,2.90
2022-08-12T00:49:54.646Z,3.10
2022-08-12T00:52:22.235Z,2.80
2022-08-12T00:54:57.730Z,2.47
2022-08-12T00:57:30.786Z,3.00
2022-08-12T01:00:05.100Z,3.20
2022-08-12T01:02:34.550Z,3.37
2022-08-12T01:05:30.905Z,3.43
2022-08-12T01:08:16.806Z,3.13
2022-08-12T01:11:04.674Z,2.87
2022-08-12T01:13:33.659Z,3.23
2022-08-12T01:16:05.104Z,2.97
2022-08-12T01:18:34.230Z,3.33
2022-08-12T01:21:16.630Z,3.37
2022-08-12T01:24:27.969Z,3.27
2022-08-12T01:26:54.954Z,3.27
2022-08-12T01:29:33.222Z,2.87
2022-08-12T01:32:05.399Z,4.47
2022-08-12T01:34:37.551Z,5.00
2022-08-12T01:37:07.625Z,3.17
2022-08-12T01:40:33.648Z,3.60
2022-08-12T01:42:47.945Z,2.97
2022-08-12T01:45:17.558Z,2.80
2022-08-12T01:48:09.505Z,3.23
2022-08-12T01:50:55.071Z,2.70
2022-08-12T01:53:50.184Z,3.03
2022-08-12T01:56:21.976Z,3.10
2022-08-12T01:59:09.192Z,3.77
2022-08-12T02:01:40.279Z,2.97
2022-08-12T02:04:39.691Z,3.63
2022-08-12T02:07:43.139Z,3.83
2022-08-12T02:10:50.843Z,3.63
2022-08-12T02:13:48.916Z,2.97
2022-08-12T02:16:41.504Z,3.33
2022-08-12T02:19:22.939Z,3.30
2022-08-12T02:22:15.362Z,2.90
2022-08-12T02:24:45.688Z,3.47
2022-08-12T02:27:15.273Z,3.20
2022-08-12T02:29:42.233Z,3.13
2022-08-12T02:32:09.982Z,3.07
2022-08-12T02:34:37.880Z,4.00
2022-08-12T02:37:05.148Z,3.70
2022-08-12T02:39:34.290Z,3.20
2022-08-12T02:42:04.737Z,4.10
2022-08-12T02:44:37.733Z,3.90
2022-08-12T02:47:07.270Z,3.70
2022-08-12T02:49:51.483Z,4.00
2022-08-12T02:52:19.381Z,3.67
2022-08-12T02:54:51.390Z,3.80
2022-08-12T02:57:20.721Z,3.53
2022-08-12T02:59:49.622Z,3.53
2022-08-12T03:02:21.671Z,3.60
2022-08-12T03:04:54.222Z,3.60
2022-08-12T03:07:39.079Z,3.50
2022-08-12T03:10:17.606Z,3.37
2022-08-12T03:12:49.383Z,3.60
2022-08-12T03:15:22.393Z,3.77
2022-08-12T03:18:25.601Z,3.70
2022-08-12T03:20:54.700Z,3.60
2022-08-12T03:23:30.221Z,3.70
2022-08-12T03:26:01.660Z,4.13
2022-08-12T03:28:51.997Z,3.73
2022-08-12T03:31:21.611Z,4.47
2022-08-12T03:34:02.182Z,3.70
2022-08-12T03:36:35.201Z,3.77
2022-08-12T03:39:37.014Z,3.90
2022-08-12T03:42:34.584Z,3.90
2022-08-12T03:45:31.402Z,4.30
2022-08-12T03:48:33.435Z,4.70
2022-08-12T03:51:20.486Z,4.50
2022-08-12T03:54:06.615Z,4.27
2022-08-12T03:56:52.631Z,4.50
2022-08-12T03:59:38.786Z,4.27
2022-08-12T04:02:05.831Z,4.33
2022-08-12T04:04:35.077Z,3.80
2022-08-12T04:07:04.788Z,4.27
2022-08-12T04:09:31.938Z,4.07
2022-08-12T04:12:17.054Z,4.40
2022-08-12T04:14:44.210Z,3.90
2022-08-12T04:17:12.283Z,4.53
2022-08-12T04:19:39.839Z,4.23
2022-08-12T04:22:06.606Z,3.67
2022-08-12T04:24:36.018Z,3.63
2022-08-12T04:27:08.617Z,4.13
2022-08-12T04:30:29.821Z,3.47
2022-08-12T04:32:26.971Z,3.77
2022-08-12T04:34:54.126Z,3.77
2022-08-12T04:37:21.205Z,3.73
2022-08-12T04:39:48.865Z,3.83
2022-08-12T04:42:16.252Z,4.00
2022-08-12T04:44:44.453Z,3.93
2022-08-12T04:47:16.566Z,5.70
2022-08-12T04:49:45.019Z,3.53
2022-08-12T04:52:12.122Z,4.10
2022-08-12T04:54:38.946Z,3.60
2022-08-12T04:57:09.797Z,4.27
2022-08-12T04:59:47.591Z,4.47
2022-08-12T05:02:21.018Z,3.63
2022-08-12T05:04:50.744Z,4.30
2022-08-12T05:07:17.738Z,3.87
2022-08-12T05:10:00.504Z,3.90
2022-08-12T05:12:36.608Z,4.13
2022-08-12T05:15:19.868Z,4.30
2022-08-12T05:17:52.804Z,3.77
2022-08-12T05:20:21.970Z,4.67
2022-08-12T05:22:56.981Z,4.43
2022-08-12T05:25:25.068Z,3.60
2022-08-12T05:27:55.444Z,3.90
2022-08-12T05:30:25.654Z,3.83
2022-08-12T05:32:55.558Z,4.10
2022-08-12T05:35:24.298Z,4.30
2022-08-12T05:38:14.218Z,4.20
2022-08-12T05:40:41.920Z,3.70
2022-08-12T05:43:08.957Z,3.77
2022-08-12T05:45:35.732Z,3.90
2022-08-12T05:48:02.781Z,3.80
2022-08-12T05:50:29.611Z,3.80
2022-08-12T05:52:56.422Z,4.20
2022-08-12T05:55:26.975Z,3.30
2022-08-12T05:57:57.297Z,3.43
2022-08-12T06:00:25.727Z,3.20
2022-08-12T06:03:01.288Z,3.47
2022-08-12T06:05:43.128Z,3.63
2022-08-12T06:08:21.197Z,4.20
2022-08-12T06:10:50.264Z,4.10
2022-08-12T06:13:28.057Z,3.20
2022-08-12T06:16:09.919Z,3.73
2022-08-12T06:18:40.033Z,3.77
2022-08-12T06:21:11.507Z,3.30
2022-08-12T06:23:42.462Z,2.77
2022-08-12T06:26:12.828Z,3.10
2022-08-12T06:28:41.046Z,3.57
2022-08-12T06:31:25.408Z,2.63
2022-08-12T06:33:57.555Z,3.07
2022-08-12T06:36:30.168Z,3.47
2022-08-12T06:39:00.841Z,3.17
2022-08-12T06:42:02.426Z,3.30
2022-08-12T06:44:33.047Z,3.50
2022-08-12T06:47:00.168Z,3.30
2022-08-12T06:49:28.442Z,2.80
2022-08-12T06:51:56.693Z,3.17
2022-08-12T06:54:31.240Z,3.27
2022-08-12T06:57:05.322Z,5.53
2022-08-12T06:59:50.385Z,3.80
2022-08-12T07:02:18.526Z,3.40
2022-08-12T07:04:47.457Z,3.20
2022-08-12T07:07:14.573Z,3.30
2022-08-12T07:10:01.328Z,3.40
2022-08-12T07:12:30.230Z,3.17
2022-08-12T07:14:58.261Z,3.00
2022-08-12T07:17:37.243Z,2.90
2022-08-12T07:20:13.721Z,2.93
2022-08-12T07:22:57.455Z,3.37
2022-08-12T07:25:40.335Z,3.07
2022-08-12T07:28:16.585Z,3.67
2022-08-12T07:30:45.375Z,2.67
2022-08-12T07:33:13.480Z,2.40
2022-08-12T07:35:50.429Z,2.63
2022-08-12T07:38:31.517Z,2.90
2022-08-12T07:41:07.037Z,3.20
2022-08-12T07:43:39.236Z,3.13
2022-08-12T07:46:08.437Z,3.57
2022-08-12T07:48:46.973Z,3.00
2022-08-12T07:51:24.784Z,3.10
2022-08-12T07:54:00.749Z,4.47
2022-08-12T07:56:31.210Z,6.50
2022-08-12T07:58:59.401Z,4.23
2022-08-12T08:01:26.747Z,2.83
2022-08-12T08:04:18.514Z,3.70
2022-08-12T08:06:46.320Z,2.77
2022-08-12T08:09:15.243Z,3.63
2022-08-12T08:12:00.762Z,2.77
2022-08-12T08:14:31.778Z,2.50
2022-08-12T08:17:00.374Z,3.17
2022-08-12T08:19:29.164Z,3.93
2022-08-12T08:21:58.786Z,2.73
2022-08-12T08:24:28.009Z,2.90
2022-08-12T08:26:56.838Z,2.33
2022-08-12T08:29:25.036Z,3.00
2022-08-12T08:31:59.985Z,3.63
2022-08-12T08:34:33.926Z,2.70
2022-08-12T08:37:17.040Z,3.27
2022-08-12T08:39:44.503Z,2.70
2022-08-12T08:42:30.021Z,3.27
2022-08-12T08:44:58.881Z,3.10
2022-08-12T08:47:25.844Z,2.90
2022-08-12T08:49:52.737Z,2.60
2022-08-12T08:52:39.713Z,2.63
2022-08-12T08:55:09.552Z,2.40
2022-08-12T08:57:43.622Z,2.40
2022-08-12T09:00:16.069Z,3.63
2022-08-12T09:02:49.356Z,2.47
2022-08-12T09:05:26.187Z,2.40
2022-08-12T09:08:08.904Z,2.40
2022-08-12T09:10:45.252Z,2.40
2022-08-12T09:16:20.189Z,2.13
2022-08-12T09:18:48.376Z,2.20
2022-08-12T09:21:20.084Z,3.70
2022-08-12T09:24:00.012Z,2.23
2022-08-12T09:26:38.167Z,3.00
2022-08-12T09:30:09.850Z,2.47
2022-08-12T09:32:29.543Z,2.17
2022-08-12T09:34:56.760Z,2.73
2022-08-12T09:37:26.777Z,2.77
2022-08-12T09:40:02.394Z,2.97
2022-08-12T09:43:15.434Z,2.90
2022-08-12T09:46:06.455Z,2.70
2022-08-12T09:48:35.657Z,3.93
2022-08-12T09:51:12.970Z,2.70
2022-08-12T09:54:06.037Z,2.10
2022-08-12T09:57:00.305Z,2.70
2022-08-12T10:00:16.499Z,2.30
2022-08-12T10:02:45.070Z,2.17
2022-08-12T10:04:59.699Z,2.10
2022-08-12T10:07:30.981Z,2.40
2022-08-12T10:10:24.236Z,1.87
2022-08-12T10:13:14.067Z,2.10
2022-08-12T10:16:01.851Z,2.17
2022-08-12T10:18:32.795Z,2.10
2022-08-12T10:21:06.369Z,3.83
2022-08-12T10:23:40.660Z,3.30
2022-08-12T10:26:37.378Z,2.13
2022-08-12T10:30:03.580Z,2.70
2022-08-12T10:32:20.949Z,2.63
2022-08-12T10:34:53.409Z,2.80
2022-08-12T10:38:37.407Z,2.37
2022-08-12T10:40:15.718Z,2.53
2022-08-12T10:43:05.653Z,2.80
2022-08-12T10:45:32.920Z,2.33
2022-08-12T10:48:19.521Z,3.17
2022-08-12T10:51:01.603Z,2.13
2022-08-12T10:53:46.022Z,3.00
2022-08-12T10:56:17.581Z,2.13
2022-08-12T10:58:47.164Z,2.50
2022-08-12T11:01:50.212Z,2.63
2022-08-12T11:04:27.479Z,2.10
2022-08-12T11:07:09.387Z,2.60
2022-08-12T11:09:51.349Z,2.37
2022-08-12T11:12:55.548Z,2.50
2022-08-12T11:15:19.273Z,2.60
2022-08-12T11:17:53.481Z,1.97
2022-08-12T11:20:24.279Z,2.50
2022-08-12T11:23:03.883Z,2.20
2022-08-12T11:25:56.413Z,2.50
2022-08-12T11:28:33.378Z,2.93
2022-08-12T11:31:02.868Z,2.37
2022-08-12T11:34:05.425Z,1.93
2022-08-12T11:36:17.509Z,2.40
2022-08-12T11:38:50.792Z,2.57
2022-08-12T11:41:31.527Z,2.03
2022-08-12T11:44:07.228Z,2.23
2022-08-12T11:46:54.910Z,2.93
2022-08-12T11:49:32.487Z,2.20
2022-08-12T11:52:01.640Z,2.07
2022-08-12T11:54:29.794Z,2.10
2022-08-12T11:57:00.337Z,2.40
2022-08-12T12:02:02.879Z,2.23
2022-08-12T12:02:20.114Z,1.97
2022-08-12T12:04:52.807Z,2.47
2022-08-12T12:08:36.391Z,2.57
2022-08-12T12:10:14.726Z,1.60
2022-08-12T12:12:49.683Z,2.17
2022-08-12T12:15:25.379Z,1.93
2022-08-12T12:18:06.857Z,1.63
2022-08-12T12:20:35.153Z,2.03
2022-08-12T12:23:03.168Z,2.00
2022-08-12T12:25:59.683Z,1.90
2022-08-12T12:28:36.569Z,1.70
2022-08-12T12:31:05.108Z,1.90
2022-08-12T12:33:57.324Z,1.90
2022-08-12T12:36:30.106Z,1.60
2022-08-12T12:38:58.180Z,1.57
2022-08-12T12:42:44.239Z,1.20
2022-08-12T12:44:25.740Z,1.73
2022-08-12T12:46:57.311Z,1.67
2022-08-12T12:49:26.232Z,1.30
2022-08-12T12:52:18.237Z,1.40
2022-08-12T12:54:52.670Z,1.73
2022-08-12T12:57:21.552Z,2.20
2022-08-12T13:00:14.827Z,1.50
2022-08-12T13:02:46.252Z,1.40
2022-08-12T13:05:27.689Z,1.77
2022-08-12T13:08:01.044Z,1.20
2022-08-12T13:10:36.517Z,1.23
2022-08-12T13:14:07.255Z,1.63
2022-08-12T13:15:51.256Z,1.40
2022-08-12T13:18:18.459Z,1.27
2022-08-12T13:20:46.171Z,1.17
2022-08-12T13:23:36.976Z,1.40
2022-08-12T13:26:03.992Z,1.33
2022-08-12T13:28:31.771Z,1.43
2022-08-12T13:31:02.670Z,1.17
2022-08-12T13:34:33.656Z,1.47
2022-08-12T13:36:20.365Z,1.77
2022-08-12T13:38:52.080Z,1.43
2022-08-12T13:41:33.143Z,1.40
2022-08-12T13:44:01.733Z,1.40
2022-08-12T13:46:28.568Z,1.60
2022-08-12T13:48:56.509Z,1.83
2022-08-12T13:51:24.748Z,1.80
2022-08-12T13:53:57.777Z,2.27
2022-08-12T13:56:29.895Z,1.63
2022-08-12T13:59:05.629Z,1.53
2022-08-12T14:01:35.803Z,1.80
2022-08-12T14:04:11.892Z,1.70
2022-08-12T14:06:40.046Z,1.57
2022-08-12T14:09:15.671Z,1.70
2022-08-12T14:11:51.269Z,1.60
2022-08-12T14:14:26.442Z,1.60
2022-08-12T14:16:53.714Z,2.00
2022-08-12T14:19:24.375Z,2.00
2022-08-12T14:22:01.291Z,1.80
2022-08-12T14:24:40.263Z,1.60
2022-08-12T14:27:10.369Z,1.30
2022-08-12T14:30:04.894Z,1.57
2022-08-12T14:32:34.588Z,1.30
2022-08-12T14:35:03.981Z,1.30
2022-08-12T14:37:55.612Z,1.40
2022-08-12T14:40:18.626Z,2.40
2022-08-12T14:42:47.049Z,1.50
2022-08-12T14:45:14.085Z,1.30
2022-08-12T14:47:58.775Z,1.60
2022-08-12T14:50:37.190Z,1.23
2022-08-12T14:55:13.921Z,1.23
2022-08-12T14:59:20.363Z,1.50
2022-08-12T15:01:50.779Z,1.70
2022-08-12T15:04:22.551Z,1.30
2022-08-12T15:06:52.639Z,1.37
2022-08-12T15:09:29.074Z,1.90
2022-08-12T15:12:03.522Z,1.70
2022-08-12T15:14:31.645Z,1.53
2022-08-12T15:17:00.045Z,1.20
2022-08-12T15:20:27.833Z,0.97
2022-08-12T15:22:36.826Z,1.20
2022-08-12T15:25:07.372Z,1.37
2022-08-12T15:28:10.986Z,1.40
2022-08-12T15:30:30.434Z,1.47
2022-08-12T15:32:57.671Z,1.10
2022-08-12T15:35:27.569Z,1.50
2022-08-12T15:38:18.626Z,1.47
2022-08-12T15:40:52.506Z,1.30
2022-08-12T15:43:51.417Z,1.40
2022-08-12T15:46:15.554Z,1.30
2022-08-12T15:48:47.018Z,1.00
2022-08-12T15:51:59.714Z,1.03
2022-08-12T15:54:34.089Z,1.20
2022-08-12T15:57:10.800Z,1.40
2022-08-12T16:00:00.758Z,1.13
2022-08-12T16:02:41.035Z,1.93
2022-08-12T16:06:12.663Z,1.63
2022-08-12T16:08:05.895Z,1.50
2022-08-12T16:10:33.376Z,1.53
2022-08-12T16:13:11.443Z,1.50
2022-08-12T16:15:42.258Z,1.40
2022-08-12T16:18:20.577Z,1.57
2022-08-12T16:20:47.635Z,1.33
2022-08-12T16:23:36.423Z,1.30
2022-08-12T16:26:15.199Z,1.70
2022-08-12T16:28:47.579Z,1.63
2022-08-12T16:31:23.098Z,1.67
2022-08-12T16:33:58.841Z,1.40
2022-08-12T16:36:28.731Z,1.40
2022-08-12T16:38:55.672Z,1.40
2022-08-12T16:41:23.524Z,2.37
2022-08-12T16:43:53.010Z,2.10
2022-08-12T16:46:33.433Z,2.10
2022-08-12T16:49:09.291Z,1.60
2022-08-12T16:51:46.480Z,1.20
2022-08-12T16:54:16.040Z,1.60
2022-08-12T16:56:55.526Z,2.13
2022-08-12T16:59:52.904Z,2.00
2022-08-12T17:02:31.240Z,1.50
2022-08-12T17:05:02.971Z,1.60
2022-08-12T17:07:36.311Z,2.40
2022-08-12T17:10:12.964Z,1.77
2022-08-12T17:12:40.191Z,1.40
2022-08-12T17:15:25.692Z,1.83
2022-08-12T17:18:15.368Z,1.73
2022-08-12T17:20:49.245Z,1.73
2022-08-12T17:23:19.274Z,1.80
2022-08-12T17:25:52.956Z,1.73
2022-08-12T17:28:24.084Z,2.53
2022-08-12T17:30:56.429Z,1.60
2022-08-12T17:33:27.790Z,1.33
2022-08-12T17:36:01.361Z,2.13
2022-08-12T17:38:29.457Z,2.30
2022-08-12T17:40:57.579Z,2.23
2022-08-12T17:43:55.706Z,2.67
2022-08-12T17:46:23.605Z,2.00
2022-08-12T17:48:55.039Z,1.67
2022-08-12T17:51:24.541Z,1.63
2022-08-12T17:54:06.116Z,2.50
2022-08-12T17:56:39.926Z,2.03
2022-08-12T17:59:08.965Z,2.50
2022-08-12T18:01:36.919Z,1.90
2022-08-12T18:04:20.788Z,1.60
2022-08-12T18:06:50.569Z,1.77
2022-08-12T18:09:18.191Z,1.50
2022-08-12T18:12:08.287Z,2.47
2022-08-12T18:14:38.003Z,2.40
2022-08-12T18:17:08.557Z,1.70
2022-08-12T18:20:06.354Z,2.03
2022-08-12T18:22:30.584Z,1.90
2022-08-12T18:25:05.022Z,1.23
2022-08-12T18:27:44.872Z,1.40
2022-08-12T18:30:20.254Z,1.80
2022-08-12T18:32:54.225Z,1.70
2022-08-12T18:35:52.388Z,1.50
2022-08-12T18:38:17.612Z,1.30
2022-08-12T18:41:06.135Z,1.57
2022-08-12T18:43:38.881Z,1.70
2022-08-12T18:46:29.911Z,1.90
2022-08-12T18:48:57.583Z,2.13
2022-08-12T18:51:55.168Z,1.23
2022-08-12T18:54:35.018Z,1.70
2022-08-12T18:57:07.113Z,1.40
2022-08-12T19:00:02.057Z,1.93
2022-08-12T19:02:40.719Z,1.50
2022-08-12T19:05:10.726Z,2.50
2022-08-12T19:07:59.876Z,1.80
2022-08-12T19:10:29.526Z,1.40
2022-08-12T19:13:23.373Z,2.10
2022-08-12T19:15:53.641Z,1.60
2022-08-12T19:18:22.300Z,2.17
2022-08-12T19:20:50.552Z,2.20
2022-08-12T19:23:21.234Z,1.20
2022-08-12T19:26:01.477Z,1.57
2022-08-12T19:28:35.452Z,2.00
2022-08-12T19:31:55.489Z,1.93
2022-08-12T19:37:26.672Z,1.93
2022-08-12T19:40:10.189Z,1.70
2022-08-12T19:43:00.703Z,1.60
2022-08-12T19:45:43.689Z,1.97
2022-08-12T19:48:18.507Z,2.27
2022-08-12T19:50:50.497Z,1.90
2022-08-12T19:53:23.853Z,2.17
2022-08-12T19:55:55.998Z,1.40
2022-08-12T19:58:24.697Z,1.60
2022-08-12T20:00:53.794Z,1.80
2022-08-12T20:03:39.592Z,1.93
2022-08-12T20:06:18.273Z,2.40
2022-08-12T20:08:56.339Z,2.00
2022-08-12T20:12:12.014Z,2.27
2022-08-12T20:14:18.607Z,1.70
2022-08-12T20:16:51.102Z,2.80
2022-08-12T20:19:20.483Z,3.60
2022-08-12T20:21:47.323Z,2.10
2022-08-12T20:24:14.513Z,3.73
2022-08-12T20:26:42.567Z,4.17
2022-08-12T20:29:11.654Z,1.80
2022-08-12T20:31:43.136Z,3.33
2022-08-12T20:34:12.484Z,3.90
2022-08-12T20:36:44.783Z,3.73
2022-08-12T20:39:37.100Z,2.87
2022-08-12T20:42:07.325Z,2.80
2022-08-12T20:44:39.664Z,3.83
2022-08-12T20:47:19.376Z,5.50
2022-08-12T20:49:54.948Z,2.73
2022-08-12T20:52:29.041Z,2.50
2022-08-12T20:54:58.040Z,2.20
2022-08-12T20:57:38.363Z,2.40
2022-08-12T21:00:16.723Z,2.30
2022-08-12T21:02:49.844Z,2.17
2022-08-12T21:06:12.543Z,2.30
2022-08-12T21:08:27.248Z,3.50
2022-08-12T21:10:54.594Z,1.90
2022-08-12T21:13:29.530Z,2.37
2022-08-12T21:16:06.759Z,2.43
2022-08-12T21:18:38.056Z,2.17
2022-08-12T21:21:06.792Z,2.17
2022-08-12T21:23:52.305Z,2.07
2022-08-12T21:26:23.613Z,2.10
2022-08-12T21:29:01.170Z,2.10
2022-08-12T21:32:37.107Z,1.57
2022-08-12T21:34:19.554Z,2.33
2022-08-12T21:36:49.566Z,2.07
2022-08-12T21:39:26.778Z,2.13
2022-08-12T21:42:05.384Z,3.53
2022-08-12T21:45:47.732Z,2.60
2022-08-12T21:47:23.986Z,2.50
2022-08-12T21:50:06.626Z,2.77
2022-08-12T21:52:40.792Z,2.17
2022-08-12T21:55:18.722Z,2.47
2022-08-12T21:57:50.532Z,2.17
2022-08-12T22:00:19.802Z,2.30
2022-08-12T22:03:05.515Z,2.77
2022-08-12T22:05:53.507Z,2.63
2022-08-12T22:08:22.509Z,2.50
2022-08-12T22:10:56.341Z,2.57
2022-08-12T22:14:04.121Z,2.87
2022-08-12T22:16:14.357Z,2.33
2022-08-12T22:18:44.388Z,2.70
2022-08-12T22:21:22.281Z,2.30
2022-08-12T22:24:05.203Z,2.40
2022-08-12T22:26:37.874Z,2.30
2022-08-12T22:29:27.392Z,2.90
2022-08-12T22:31:55.811Z,2.57
2022-08-12T22:34:29.268Z,2.30
2022-08-12T22:36:57.555Z,2.33
2022-08-12T22:39:26.550Z,2.33
2022-08-12T22:42:12.053Z,2.90
2022-08-12T22:44:57.614Z,2.33
2022-08-12T22:47:53.349Z,2.70
2022-08-12T22:50:28.939Z,2.43
2022-08-12T22:53:14.975Z,2.83
2022-08-12T22:56:05.863Z,2.80
2022-08-12T22:58:34.089Z,2.70
2022-08-12T23:01:02.187Z,2.90
2022-08-12T23:03:47.722Z,2.70
2022-08-12T23:06:19.310Z,3.00
2022-08-12T23:08:46.622Z,1.97
2022-08-12T23:11:14.933Z,2.50
2022-08-12T23:13:56.097Z,2.40
2022-08-12T23:16:31.102Z,2.57
2022-08-12T23:19:09.467Z,2.50
2022-08-12T23:22:04.146Z,1.80
2022-08-12T23:24:37.026Z,2.57
2022-08-12T23:27:23.846Z,2.30
2022-08-12T23:30:18.366Z,2.10
2022-08-12T23:32:46.462Z,2.50
2022-08-12T23:35:22.408Z,2.10
2022-08-12T23:37:53.525Z,2.60
2022-08-12T23:40:22.401Z,2.30
2022-08-12T23:42:52.020Z,2.37
2022-08-12T23:45:31.781Z,2.57
2022-08-12T23:48:01.819Z,2.53
2022-08-12T23:50:34.165Z,2.50
2022-08-12T23:53:05.298Z,2.53
2022-08-12T23:55:35.931Z,2.37
2022-08-12T23:58:21.341Z,2.30
